Osceola, IA (50213)

4:06 PM CDT on March 30, 2017 (GMT -0500)
Osceola Municipal | | Change Station

Elev 1112 ft 41.05 °N, 93.69 °W | Updated 11 minutes ago

Overcast
Overcast
45 °F
Feels Like 39 °F
N
12
Wind Variable Wind from North
Gusts 17 mph

Today
High -- | Low -- °F
--% Chance of Precip.
Yesterday
High -- | Low -- °F
Precip. -- in
Pressure 29.61 in
Visibility 10.0 miles
Clouds Overcast 500 ft
Windchill 39 °F
Dew Point 43 °F
Humidity 93%
Rainfall 0.16 in
Snow Depth Not available.
7:01 AM 7:38 PM
Waxing Crescent, 10% visible
METAR KI75 302055Z AUTO 01010G15KT 10SM OVC005 07/06 A2961 RMK AO2 T00700060
Pressure 29.61 in
Visibility 10.0 miles
Clouds Overcast 500 ft
Windchill 39 °F
Dew Point 43 °F
Humidity 93%
Rainfall 0.16 in
Snow Depth Not available.
7:01 AM 7:38 PM
Waxing Crescent, 10% visible
METAR KI75 302055Z AUTO 01010G15KT 10SM OVC005 07/06 A2961 RMK AO2 T00700060

Get Severe Weather Alerts

Thanks for signing up!

Be on the lookout for a verification email in your inbox.

You'll start receiving the daily forecast at 8 AM.

×

10-Day Weather Forecast

Almanac

Astronomy

Mar. 30, 2017 Rise Set
Actual Time
Civil Twilight
Nautical Twilight
Astronomical Twilight
Moon
Length of Visible Light
Length of Day
Tomorrow will be .
, % of the Moon is Illuminated

Today's Extremes

State Highs State Lows

Community

WunderPhotos

Upload Photos

1,962,540 photos uploaded!

WunderBlog® & News

Nearby

Air Quality

  Air Quality AQ Index Pollutant
Not available.

Snow Depth

Station Depth Elevation

Earthquake Activity

City Distance Mag. Time & Date
Minimum magnitude displayed is 2.5.

Earthquake Activity

City Distance Mag. Time & Date
Minimum magnitude displayed is 2.5.

Coastal Water Temperatures

Place Temperature

Stations

Nearby Weather Stations

Station Location Temp. Windchill Dew Point Humidity Wind Precip. Elev Updated Type
                   

Watches & Warnings

There are currently no watches in effect.